createdAt,value
2016-10-21T11:42:55.716Z,64.53
2016-10-21T11:43:55.066Z,64.91
2016-10-21T11:44:54.961Z,66.06
2016-10-21T11:45:54.979Z,65.11
2016-10-21T11:46:55.894Z,65.77
2016-10-21T11:47:55.937Z,65.77
2016-10-21T11:48:54.923Z,65.97
2016-10-21T11:49:54.824Z,66.06
2016-10-21T11:50:54.910Z,65.97
2016-10-21T11:51:54.762Z,64.25
2016-10-21T11:52:56.863Z,64.05
2016-10-21T11:53:55.709Z,65.14
2016-10-21T11:54:54.675Z,64.82
2016-10-21T11:55:55.393Z,64.18
2016-10-21T11:57:09.343Z,63.8
2016-10-21T11:57:54.602Z,63.51
2016-10-21T11:58:55.016Z,64.47
2016-10-21T11:59:54.563Z,63.13
2016-10-21T12:00:55.225Z,63.13
2016-10-21T12:01:54.848Z,63.54
2016-10-21T12:04:32.318Z,62.49
2016-10-21T12:05:17.907Z,62.68
2016-10-21T12:06:17.871Z,61.54
2016-10-21T12:07:17.913Z,61.82
2016-10-21T12:08:17.456Z,61.82
2016-10-21T12:09:17.430Z,60.77
2016-10-21T12:10:17.408Z,60.96
2016-10-21T12:11:17.643Z,61.25
2016-10-21T12:12:17.333Z,61.05
2016-10-21T12:13:17.677Z,61.44
2016-10-21T12:14:17.630Z,61.25
2016-10-21T12:15:32.000Z,61.34
2016-10-21T12:16:17.245Z,62.49
2016-10-21T12:17:17.228Z,61.82
2016-10-21T12:18:17.210Z,61.54
2016-10-21T12:19:17.153Z,61.54
2016-10-21T12:20:17.169Z,61.82
2016-10-21T12:21:17.092Z,61.82
2016-10-21T12:22:17.052Z,61.25
2016-10-21T12:23:17.084Z,62.11
2016-10-21T12:24:17.004Z,62.3
2016-10-21T12:25:16.967Z,62.59
2016-10-21T12:26:17.375Z,61.54
2016-10-21T12:27:16.909Z,61.15
2016-10-21T12:28:16.872Z,61.82
2016-10-21T12:29:17.265Z,61.54
2016-10-21T12:30:17.585Z,61.91
2016-10-21T12:31:16.825Z,62.49
2016-10-21T12:32:16.771Z,61.44
2016-10-21T12:33:27.346Z,62.4
2016-10-21T12:34:16.713Z,62.2
2016-10-21T12:35:17.036Z,61.98
2016-10-21T12:36:17.126Z,61.79
2016-10-21T12:37:16.992Z,61.79
2016-10-21T12:38:16.946Z,61.91
2016-10-21T12:39:16.590Z,61.88
2016-10-21T12:40:16.523Z,61.6
2016-10-21T12:41:16.491Z,62.08
2016-10-21T12:42:16.482Z,62.55
2016-10-21T12:43:16.841Z,62.37
2016-10-21T12:44:16.417Z,62.08
2016-10-21T12:45:16.434Z,62.49
2016-10-21T12:46:31.162Z,62.27
2016-10-21T12:47:16.340Z,62.65
2016-10-21T12:48:16.340Z,62.74
2016-10-21T12:50:16.879Z,61.34
2016-10-21T12:51:16.280Z,61.44
2016-10-21T12:52:16.690Z,61.41
2016-10-21T12:53:16.502Z,61.22
2016-10-21T12:54:16.496Z,62.37
2016-10-21T12:55:16.193Z,62.74
2016-10-21T12:56:16.062Z,62.37
2016-10-21T12:57:16.042Z,62.59
2016-10-21T12:58:16.003Z,62.01
2016-10-21T12:59:16.041Z,61.34
2016-10-21T13:00:31.104Z,62.01
2016-10-21T13:05:11.115Z,61.54
2016-10-21T13:06:10.880Z,61.82
2016-10-21T13:07:10.866Z,61.54
2016-10-21T13:08:10.737Z,61.91
2016-10-21T13:09:11.095Z,61.25
2016-10-21T13:10:10.778Z,61.54
2016-10-21T13:11:10.670Z,61.44
2016-10-21T13:12:11.046Z,61.63
2016-10-21T13:13:10.981Z,61.54
2016-10-21T13:14:10.567Z,60.96
2016-10-21T13:15:13.606Z,61.44
2016-10-21T13:18:56.783Z,61.54
2016-10-21T13:19:56.747Z,61.44
2016-10-21T13:21:57.101Z,61.82
2016-10-21T13:22:57.634Z,61.63
2016-10-21T13:23:57.567Z,61.44
2016-10-21T13:24:56.614Z,61.34
2016-10-21T13:25:56.624Z,62.11
2016-10-21T13:26:56.542Z,62.4
2016-10-21T13:27:56.543Z,62.01
2016-10-21T13:28:56.905Z,61.15
2016-10-21T13:29:57.064Z,61.54
2016-10-21T13:30:56.424Z,61.25
2016-10-21T13:31:57.033Z,60.93
2016-10-21T13:32:56.393Z,61.51
2016-10-21T13:34:11.075Z,61.41
2016-10-21T13:34:56.755Z,61.51
2016-10-21T13:35:56.296Z,61.41
2016-10-21T13:36:56.271Z,61.79
2016-10-21T13:37:56.298Z,62.37
2016-10-21T13:38:56.199Z,62.08
2016-10-21T13:39:56.151Z,61.79
2016-10-21T13:40:56.726Z,61.6
2016-10-21T13:41:56.124Z,61.22
2016-10-21T13:43:56.067Z,61.44
2016-10-21T13:44:56.059Z,61.63
2016-10-21T13:45:55.993Z,61.15
2016-10-21T13:49:13.147Z,61.41
2016-10-21T13:50:13.210Z,61.41
2016-10-21T13:54:13.703Z,62.27
2016-10-21T13:54:59.105Z,62.46
2016-10-21T13:55:58.975Z,62.55
2016-10-21T13:56:58.949Z,62.27
2016-10-21T13:57:59.230Z,61.79
2016-10-21T13:58:58.851Z,61.88
2016-10-21T13:59:58.857Z,61.88
2016-10-21T14:00:59.020Z,61.98
2016-10-21T14:01:59.423Z,61.79
2016-10-21T14:02:58.710Z,62.3
2016-10-21T14:03:58.716Z,62.68
2016-10-21T14:05:05.026Z,62.59
2016-10-21T14:05:58.703Z,62.77
2016-10-21T14:06:59.061Z,62.68
2016-10-21T14:07:58.596Z,63.06
2016-10-21T14:09:13.297Z,62.87
2016-10-21T14:09:58.502Z,62.2
2016-10-21T14:11:13.471Z,62.49
2016-10-21T14:11:58.616Z,61.82
2016-10-21T14:13:58.410Z,62.01
2016-10-21T14:14:59.119Z,62.11
2016-10-21T14:15:58.730Z,62.01
2016-10-21T14:16:58.336Z,62.49
2016-10-21T14:17:58.748Z,62.11
2016-10-21T14:18:58.801Z,62.3
2016-10-21T14:19:58.255Z,62.4
2016-10-21T14:20:58.214Z,62.87
2016-10-21T14:21:58.217Z,62.68
2016-10-21T14:22:58.291Z,62.87
2016-10-21T14:26:21.218Z,63.06
2016-10-21T14:27:21.528Z,63.06
2016-10-21T14:28:21.156Z,63.35
2016-10-21T14:29:21.104Z,62.77
2016-10-21T14:30:21.761Z,62.87
2016-10-21T14:31:21.410Z,63.16
2016-10-21T14:32:21.434Z,62.87
2016-10-21T14:33:21.051Z,62.84
2016-10-21T14:34:21.379Z,62.68
2016-10-21T14:35:20.994Z,63.13
2016-10-21T14:36:20.905Z,62.84
2016-10-21T14:37:20.987Z,62.94
2016-10-21T14:38:20.841Z,63.6
2016-10-21T14:39:20.875Z,63.51
2016-10-21T14:40:35.545Z,63.99
2016-10-21T14:41:20.774Z,63.7
2016-10-21T14:42:20.765Z,63.13
2016-10-21T14:43:20.782Z,63.32
2016-10-21T14:44:21.308Z,63.7
2016-10-21T14:45:20.720Z,63.51
2016-10-21T14:47:29.499Z,63.8
2016-10-21T14:49:30.104Z,64.56
2016-10-21T14:50:29.419Z,64.28
2016-10-21T14:51:29.491Z,64.28
2016-10-21T14:52:29.482Z,65.14
2016-10-21T14:53:29.330Z,65.23
2016-10-21T14:54:29.342Z,65.23
2016-10-21T14:55:29.291Z,65.01
2016-10-21T14:56:29.256Z,65.33
2016-10-21T14:57:29.270Z,66.16
2016-10-21T14:58:29.175Z,66.06
2016-10-21T14:59:29.133Z,65.01
2016-10-21T15:00:43.868Z,65.33
2016-10-21T15:01:29.145Z,65.42
2016-10-21T15:02:29.127Z,65.71
2016-10-21T15:03:29.027Z,66.09
2016-10-21T15:04:43.721Z,66.09
2016-10-21T15:05:29.170Z,66.47
2016-10-21T15:06:29.343Z,66.67
2016-10-21T15:07:28.918Z,67.02
2016-10-21T15:08:28.878Z,67.21
2016-10-21T15:09:29.259Z,67.02
2016-10-21T15:10:28.957Z,68.07
2016-10-21T15:11:28.863Z,67.97
2016-10-21T15:12:43.795Z,67.59
2016-10-21T15:13:28.718Z,67.88
2016-10-21T15:15:28.682Z,68.07
2016-10-21T15:16:28.711Z,68.55
2016-10-21T15:17:28.978Z,68.8
2016-10-21T15:18:28.625Z,68.74
2016-10-21T15:20:28.584Z,68.35
2016-10-21T15:21:43.423Z,67.78
2016-10-21T15:22:28.567Z,67.69
2016-10-21T15:23:28.842Z,67.88
2016-10-21T15:24:29.199Z,68.07
2016-10-21T15:25:29.981Z,68.55
2016-10-21T15:26:32.625Z,69.12
2016-10-21T15:27:29.157Z,69.12
2016-10-21T15:28:28.965Z,68.74
2016-10-21T15:29:42.989Z,68.84
2016-10-21T15:30:28.865Z,69.02
2016-10-21T15:31:28.590Z,68.74
2016-10-21T15:32:28.192Z,68.55
2016-10-21T15:33:28.587Z,69.79
2016-10-21T15:34:28.114Z,69.31
2016-10-21T15:35:28.234Z,69.98
2016-10-21T15:36:29.027Z,69.31
2016-10-21T15:37:28.116Z,69.5
2016-10-21T15:38:28.256Z,69.02
2016-10-21T15:39:29.060Z,68.55
2016-10-21T15:40:27.963Z,69.02
2016-10-21T15:41:28.346Z,68.74
2016-10-21T15:42:28.074Z,69.7
2016-10-21T15:43:27.899Z,68.64
2016-10-21T15:44:28.225Z,68.74
2016-10-21T15:45:42.699Z,68.74
2016-10-21T15:46:27.796Z,69.7
2016-10-21T15:47:27.823Z,68.55
2016-10-21T15:48:27.931Z,68.93
2016-10-21T15:49:27.689Z,69.89
2016-10-21T15:50:27.692Z,69.21
2016-10-21T15:51:27.761Z,69.6
2016-10-21T15:52:28.432Z,69.12
2016-10-21T15:53:27.649Z,68.16
2016-10-21T15:55:27.504Z,68.84
2016-10-21T15:57:27.470Z,69.12
2016-10-21T15:58:27.573Z,69.41
2016-10-21T15:59:27.393Z,69.37
2016-10-21T16:00:27.497Z,69.79
2016-10-21T16:01:27.766Z,70.04
2016-10-21T16:02:27.318Z,70.33
2016-10-21T16:03:41.986Z,70.23
2016-10-21T16:04:27.246Z,70.42
2016-10-21T16:05:27.447Z,70.14
2016-10-21T16:06:27.744Z,70.04
2016-10-21T16:07:27.273Z,70.04
2016-10-21T16:08:27.170Z,70.46
2016-10-21T16:09:27.219Z,69.89
2016-10-21T16:10:27.085Z,70.04
2016-10-21T16:11:27.330Z,70.14
2016-10-21T16:12:41.731Z,70.23
2016-10-21T16:13:27.337Z,69.95
2016-10-21T16:14:26.956Z,71
2016-10-21T16:15:27.437Z,71
2016-10-21T16:16:27.087Z,71.38
2016-10-21T16:17:41.583Z,71
2016-10-21T16:18:41.567Z,70.81
2016-10-21T16:20:26.821Z,71
2016-10-21T16:21:26.783Z,70.36
2016-10-21T16:22:27.143Z,69.89
2016-10-21T16:23:41.401Z,71.32
2016-10-21T16:24:27.184Z,70.75
2016-10-21T16:25:26.665Z,70.84
2016-10-21T16:26:26.825Z,71.03
2016-10-21T16:27:27.014Z,71.32
2016-10-21T16:28:26.704Z,70.84
2016-10-21T16:29:26.666Z,71.47
2016-10-21T16:30:27.115Z,71.28
2016-10-21T16:31:26.878Z,71
2016-10-21T16:32:26.908Z,69.98
2016-10-21T16:33:26.583Z,70.33
2016-10-21T16:34:27.410Z,71.09
2016-10-21T16:35:27.595Z,71.13
2016-10-21T16:36:26.278Z,70.61
2016-10-21T16:37:26.662Z,70.9
2016-10-21T16:38:26.767Z,70.17
2016-10-21T16:39:26.431Z,69.79
2016-10-21T16:40:26.205Z,69.79
2016-10-21T16:41:26.158Z,69.98
2016-10-21T16:42:26.220Z,70.07
2016-10-21T16:43:26.167Z,70.17
2016-10-21T16:44:26.066Z,71.03
2016-10-21T16:45:26.219Z,71.13
2016-10-21T16:46:26.485Z,70.84
2016-10-21T16:47:26.316Z,70.36
2016-10-21T16:48:26.051Z,69.7
2016-10-21T16:49:25.985Z,70.61
2016-10-21T16:50:26.116Z,70.81
2016-10-21T16:51:25.874Z,70.52
2016-10-21T16:52:25.823Z,71.13
2016-10-21T16:53:26.424Z,70.71
2016-10-21T16:54:26.163Z,71.67
2016-10-21T16:55:26.027Z,71.57
2016-10-21T16:56:40.416Z,71.95
2016-10-21T16:57:26.055Z,72.14
2016-10-21T16:58:25.640Z,71.76
2016-10-21T16:59:25.749Z,71.86
2016-10-21T17:00:25.597Z,71.76
2016-10-21T17:01:26.116Z,71.95
2016-10-21T17:02:25.938Z,71.76
2016-10-21T17:03:25.501Z,71.57
2016-10-21T17:04:25.820Z,72.43
2016-10-21T17:05:25.802Z,72.43
2016-10-21T17:06:25.421Z,71.95
2016-10-21T17:07:25.811Z,71.92
2016-10-21T17:09:25.309Z,72.53
2016-10-21T17:10:25.651Z,73.1
2016-10-21T17:11:25.249Z,73.1
2016-10-21T17:12:25.246Z,73.29
2016-10-21T17:13:25.648Z,73.29
2016-10-21T17:15:25.549Z,73
2016-10-21T17:16:25.141Z,72.53
2016-10-21T17:17:25.071Z,72.05
2016-10-21T17:18:25.433Z,72.62
2016-10-21T17:19:25.006Z,72.91
2016-10-21T17:20:25.761Z,73
2016-10-21T17:21:40.010Z,74.02
2016-10-21T17:22:24.964Z,73.83
2016-10-21T17:23:25.114Z,74.11
2016-10-21T17:24:26.612Z,73.35
2016-10-21T17:25:25.046Z,73.44
2016-10-21T17:26:24.810Z,73.1
2016-10-21T17:27:24.783Z,72.39
2016-10-21T17:28:24.882Z,72.91
2016-10-21T17:29:24.886Z,72.97
2016-10-21T17:30:25.083Z,73.16
2016-10-21T17:31:25.124Z,73.19
2016-10-21T17:32:24.911Z,73.44
2016-10-21T17:33:25.068Z,73.07
2016-10-21T17:34:24.571Z,73.29
2016-10-21T17:35:24.689Z,73.63
2016-10-21T17:36:24.950Z,73.35
2016-10-21T17:37:24.906Z,73.63
2016-10-21T17:38:24.706Z,73.16
2016-10-21T17:39:24.401Z,73.63
2016-10-21T17:40:24.789Z,72.97
2016-10-21T17:42:24.470Z,74.3
2016-10-21T17:43:39.322Z,73.25
2016-10-21T17:44:24.722Z,74.3
2016-10-21T17:46:24.210Z,74.02
2016-10-21T17:47:24.507Z,74.02
2016-10-21T17:48:25.253Z,73.16
2016-10-21T17:49:24.477Z,73.63
2016-10-21T17:50:24.676Z,73.44
2016-10-21T17:51:24.572Z,73.16
2016-10-21T17:52:24.044Z,73.07
2016-10-21T17:53:24.369Z,73.25
2016-10-21T17:55:23.963Z,73.07
2016-10-21T17:56:23.907Z,73.19
2016-10-21T17:57:24.257Z,73.25
2016-10-21T17:58:23.877Z,73.16
2016-10-21T17:59:24.185Z,73.25
2016-10-21T18:00:24.448Z,73.16
2016-10-21T18:01:23.783Z,73.25
2016-10-21T18:02:23.756Z,73.16
2016-10-21T18:03:24.056Z,73.35
2016-10-21T18:04:23.680Z,73.63
2016-10-21T18:05:23.640Z,73.25
2016-10-21T18:06:23.625Z,74.21
2016-10-21T18:07:23.925Z,74.3
2016-10-21T18:08:23.632Z,74.11
2016-10-21T18:09:23.894Z,74.49
2016-10-21T18:10:23.961Z,74.11
2016-10-21T18:11:23.610Z,74.4
2016-10-21T18:12:23.428Z,74.3
2016-10-21T18:13:23.399Z,74.3
2016-10-21T18:14:23.444Z,74.4
2016-10-21T18:15:23.349Z,74.21
2016-10-21T18:16:23.670Z,74.21
2016-10-21T18:17:24.022Z,74.11
2016-10-21T18:18:23.240Z,73.73
2016-10-21T18:19:23.229Z,74.11
2016-10-21T18:20:23.213Z,74.21
2016-10-21T18:21:23.181Z,74.69
2016-10-21T18:22:23.156Z,74.59
2016-10-21T18:23:23.481Z,74.4
2016-10-21T18:24:23.078Z,74.3
2016-10-21T18:25:23.407Z,74.4
2016-10-21T18:26:23.010Z,73.92
2016-10-21T18:27:22.995Z,74.4
2016-10-21T18:28:22.964Z,74.11
2016-10-21T18:29:23.039Z,73.83
2016-10-21T18:30:22.893Z,74.02
2016-10-21T18:31:23.245Z,74.21
2016-10-21T18:32:22.846Z,74.3
2016-10-21T18:33:23.354Z,74.11
2016-10-21T18:34:22.867Z,73.35
2016-10-21T18:35:22.760Z,73.63
2016-10-21T18:36:22.731Z,74.11
2016-10-21T18:37:22.858Z,73.92
2016-10-21T18:38:22.676Z,73.73
2016-10-21T18:39:22.619Z,73.83
2016-10-21T18:41:23.059Z,74.11
2016-10-21T18:42:22.544Z,74.21
2016-10-21T18:43:22.512Z,74.15
2016-10-21T18:44:22.499Z,74.02
2016-10-21T18:45:22.472Z,73.73
2016-10-21T18:46:22.416Z,74.34
2016-10-21T18:47:22.960Z,74.4
2016-10-21T18:48:22.380Z,74.15
2016-10-21T18:49:22.736Z,74.3
2016-10-21T18:50:22.598Z,74.11
2016-10-21T18:51:22.279Z,74.3
2016-10-21T18:52:22.270Z,74.11
2016-10-21T18:53:22.199Z,74.69
2016-10-21T18:54:22.174Z,74.59
2016-10-21T18:55:22.139Z,75.07
2016-10-21T18:56:22.424Z,74.49
2016-10-21T18:58:22.506Z,74.78
2016-10-21T18:59:36.755Z,74.78
2016-10-21T19:00:22.440Z,74.59
2016-10-21T19:01:22.412Z,74.21
2016-10-21T19:02:21.927Z,73.92
2016-10-21T19:03:21.904Z,74.4
2016-10-21T19:04:21.883Z,74.53
2016-10-21T19:05:21.892Z,74.78
2016-10-21T19:06:21.819Z,74.69
2016-10-21T19:07:22.204Z,74.53
2016-10-21T19:08:21.759Z,74.21
2016-10-21T19:09:21.727Z,74.3
2016-10-21T19:11:21.698Z,74.11
2016-10-21T19:12:21.697Z,74.24
2016-10-21T19:13:21.974Z,74.73
2016-10-21T19:14:21.581Z,74.53
2016-10-21T19:15:21.582Z,74.44
2016-10-21T19:16:21.925Z,74.63
2016-10-21T19:18:21.867Z,74.15
2016-10-21T19:19:21.520Z,74.34
2016-10-21T19:20:21.853Z,74.34
2016-10-21T19:21:21.386Z,74.15
2016-10-21T19:22:21.735Z,74.53
2016-10-21T19:23:21.337Z,74.34
2016-10-21T19:24:21.326Z,74.44
2016-10-21T19:25:21.638Z,74.53
2016-10-21T19:26:21.587Z,73.86
2016-10-21T19:27:21.250Z,73.86
2016-10-21T19:28:21.209Z,73.86
2016-10-21T19:29:35.893Z,73.86
2016-10-21T19:30:21.116Z,73.77
2016-10-21T19:31:21.072Z,74.05
2016-10-21T19:32:21.173Z,74.05
2016-10-21T19:33:21.053Z,73.86
2016-10-21T19:34:21.377Z,74.53
2016-10-21T19:35:21.372Z,74.34
2016-10-21T19:36:21.323Z,74.15
2016-10-21T19:37:21.304Z,73.96
2016-10-21T19:38:21.273Z,73.29
2016-10-21T19:39:21.346Z,73.77
2016-10-21T19:40:20.887Z,73.67
2016-10-21T19:41:20.814Z,73.29
2016-10-21T19:42:20.751Z,73.29
2016-10-21T19:43:20.819Z,73.29
2016-10-21T19:44:35.714Z,73.43
2016-10-21T19:45:21.062Z,73.48
2016-10-21T19:46:21.046Z,73.43
2016-10-21T19:47:20.683Z,73.23
2016-10-21T19:48:20.579Z,73.14
2016-10-21T19:49:20.970Z,73.43
2016-10-21T19:50:20.996Z,73.67
2016-10-21T19:51:20.849Z,73.39
2016-10-21T19:52:21.093Z,73.29
2016-10-21T19:53:20.534Z,73.1
2016-10-21T19:54:20.451Z,73.19
2016-10-21T19:55:20.823Z,73.19
2016-10-21T19:56:20.707Z,73.29
2016-10-21T19:57:20.300Z,73.39
2016-10-21T19:58:20.967Z,73.23
2016-10-21T19:59:20.374Z,73.67
2016-10-21T20:00:20.207Z,73.58
2016-10-21T20:01:20.622Z,74.15
2016-10-21T20:02:20.537Z,74.05
2016-10-21T20:03:20.122Z,74.34
2016-10-21T20:04:20.188Z,73.58
2016-10-21T20:05:20.065Z,73.67
2016-10-21T20:07:57.906Z,73.9
2016-10-21T20:08:43.584Z,73.33
2016-10-21T20:09:43.127Z,73.23
2016-10-21T20:10:43.184Z,73.67
2016-10-21T20:11:43.176Z,73.43
2016-10-21T20:12:43.051Z,74.19
2016-10-21T20:13:43.054Z,73.48
2016-10-21T20:14:42.992Z,73.33
2016-10-21T20:15:43.378Z,73.61
2016-10-21T20:16:43.313Z,73.14
2016-10-21T20:17:42.868Z,73.71
2016-10-21T20:18:42.849Z,73
2016-10-21T20:19:42.806Z,73.43
2016-10-21T20:20:42.876Z,73.33
2016-10-21T20:21:42.806Z,73.58
2016-10-21T20:22:42.813Z,74.34
2016-10-21T20:23:42.760Z,74.05
2016-10-21T20:24:42.660Z,74.34
2016-10-21T20:26:43.046Z,73.61
2016-10-21T20:28:42.550Z,73.61
2016-10-21T20:29:57.249Z,73.23
2016-10-21T20:30:43.058Z,73.33
2016-10-21T20:31:42.472Z,73.52
2016-10-21T20:32:43.110Z,73.61
2016-10-21T20:33:42.466Z,73.77
2016-10-21T20:34:42.385Z,74.15
2016-10-21T20:35:42.482Z,74.28
2016-10-21T20:36:43.056Z,73.71
2016-10-21T20:37:42.332Z,74.09
2016-10-21T20:38:57.285Z,74.19
2016-10-21T20:39:42.534Z,73.8
2016-10-21T20:40:42.346Z,73.9
2016-10-21T20:41:42.601Z,73.71
2016-10-21T20:42:42.296Z,73.9
2016-10-21T20:43:42.108Z,74.09
2016-10-21T20:44:42.454Z,73.9
2016-10-21T20:45:42.103Z,74.09
2016-10-21T20:46:42.013Z,74.28
2016-10-21T20:47:41.978Z,73.61
2016-10-21T20:48:42.347Z,73.8
2016-10-21T20:49:41.942Z,73.71
2016-10-21T20:50:41.910Z,73.71
2016-10-21T20:51:41.904Z,73.61
2016-10-21T20:52:42.220Z,74.38
2016-10-21T20:53:41.842Z,73.99
2016-10-21T20:54:42.184Z,73.99
2016-10-21T20:55:42.410Z,74.19
2016-10-21T20:56:41.733Z,73.71
2016-10-21T20:57:41.691Z,74.28
2016-10-21T20:58:41.687Z,73.61
2016-10-21T20:59:56.372Z,73.99
2016-10-21T21:00:41.966Z,73.33
2016-10-21T21:01:41.938Z,73.33
2016-10-21T21:02:41.561Z,73.61
2016-10-21T21:03:41.640Z,74.38
2016-10-21T21:04:41.517Z,73.9
2016-10-21T21:05:41.464Z,74.19
2016-10-21T21:06:56.158Z,73.9
2016-10-21T21:07:41.412Z,74.09
2016-10-21T21:08:41.657Z,74.38
2016-10-21T21:09:41.338Z,73.71
2016-10-21T21:10:41.338Z,74.09
2016-10-21T21:11:41.371Z,73.14
2016-10-21T21:12:41.505Z,73.8
2016-10-21T21:13:41.231Z,74.38
2016-10-21T21:14:41.264Z,74.28
2016-10-21T21:15:55.907Z,73.33
2016-10-21T21:16:41.159Z,73.33
2016-10-21T21:17:41.117Z,74.28
2016-10-21T21:18:41.082Z,74.19
2016-10-21T21:19:41.392Z,74.28
2016-10-21T21:20:41.114Z,73.61
2016-10-21T21:21:41.018Z,73.52
2016-10-21T21:22:41.768Z,73.61
2016-10-21T21:23:41.383Z,74.19
2016-10-21T21:24:41.514Z,73.71
2016-10-21T21:27:45.404Z,74.66
2016-10-21T21:28:55.508Z,73.9
2016-10-21T21:29:40.872Z,74.09
2016-10-21T21:30:41.254Z,74.19
2016-10-21T21:31:40.690Z,73.9
2016-10-21T21:32:41.155Z,74.19
2016-10-21T21:33:55.352Z,74.19
2016-10-21T21:34:55.323Z,73.23
2016-10-21T21:35:55.306Z,73.43
2016-10-21T21:36:40.804Z,73.43
2016-10-21T21:37:55.265Z,74.38
2016-10-21T21:38:40.790Z,73.9
2016-10-21T21:39:40.913Z,73.8
2016-10-21T21:40:41.387Z,73.9
2016-10-21T21:41:55.118Z,74.09
2016-10-21T21:43:55.070Z,73.43
2016-10-21T21:44:41.092Z,73.43
2016-10-21T21:45:41.552Z,73.43
2016-10-21T21:46:40.849Z,73.04
2016-10-21T21:48:40.562Z,73.8
2016-10-21T21:49:41.041Z,74.19
2016-10-21T21:50:41.321Z,73.61
2016-10-21T21:51:40.855Z,73.33
2016-10-21T21:52:40.097Z,73.52
2016-10-21T21:53:40.054Z,73.8
2016-10-21T21:54:40.748Z,74.38
2016-10-21T21:55:40.309Z,74.09
2016-10-21T21:56:40.518Z,74.28
2016-10-21T21:57:39.921Z,74.19
2016-10-21T21:58:39.888Z,74.38
2016-10-21T21:59:54.588Z,74.38
2016-10-21T22:00:39.846Z,74.38
2016-10-21T22:01:39.797Z,74.28
2016-10-21T22:02:40.762Z,74.28
2016-10-21T22:03:39.753Z,73.99
2016-10-21T22:04:39.720Z,74.09
2016-10-21T22:05:39.721Z,74.66
2016-10-21T22:06:39.660Z,73.99
2016-10-21T22:07:39.729Z,73.99
2016-10-21T22:08:39.598Z,74.28
2016-10-21T22:09:39.585Z,73.61
2016-10-21T22:10:39.558Z,73.14
2016-10-21T22:11:39.497Z,73.52
2016-10-21T22:12:39.474Z,73.43
2016-10-21T22:13:39.452Z,73.71
2016-10-21T22:14:39.443Z,73.9
2016-10-21T22:15:39.701Z,74.19
2016-10-21T22:16:54.092Z,73.23
2016-10-21T22:17:39.326Z,73.14
2016-10-21T22:18:39.305Z,73.46
2016-10-21T22:19:39.290Z,73.8
2016-10-21T22:20:39.717Z,73.65
2016-10-21T22:21:39.262Z,73.27
2016-10-21T22:22:39.204Z,73.33
2016-10-21T22:23:39.208Z,73.55
2016-10-21T22:24:39.178Z,74.32
2016-10-21T22:25:39.245Z,73.65
2016-10-21T22:26:39.086Z,73.43
2016-10-21T22:27:39.053Z,73.94
2016-10-21T22:28:39.409Z,74.22
2016-10-21T22:29:38.989Z,74.19
2016-10-21T22:30:38.978Z,73.75
2016-10-21T22:31:38.921Z,74.38
2016-10-21T22:32:38.960Z,73.9
2016-10-21T22:33:38.860Z,73.61
2016-10-21T22:34:38.849Z,73.61
2016-10-21T22:35:38.833Z,73.84
2016-10-21T22:36:38.786Z,74.41
2016-10-21T22:37:38.751Z,73.75
2016-10-21T22:38:39.123Z,73.94
2016-10-21T22:39:39.104Z,74.13
2016-10-21T22:40:39.029Z,74.04
2016-10-21T22:41:38.638Z,74.32
2016-10-21T22:42:38.805Z,74.32
2016-10-21T22:43:53.304Z,73.8
2016-10-21T22:45:53.247Z,73.9
2016-10-21T22:46:38.568Z,73.99
2016-10-21T22:47:53.185Z,74.09
2016-10-21T22:48:38.793Z,74.32
2016-10-21T22:49:38.455Z,73.71
2016-10-21T22:52:53.036Z,73.99
2016-10-21T22:54:38.494Z,74.28
2016-10-21T22:56:38.560Z,74.04
2016-10-21T22:57:38.431Z,74.48
2016-10-21T23:00:38.421Z,73.94
2016-10-21T23:01:38.347Z,74.32
2016-10-21T23:03:39.195Z,74.51
2016-10-21T23:04:38.040Z,74.41
2016-10-21T23:05:38.167Z,74.48
2016-10-21T23:06:38.673Z,74.57
2016-10-21T23:07:37.857Z,74.48
2016-10-21T23:08:37.832Z,74.66
2016-10-21T23:09:37.829Z,74.04
2016-10-21T23:11:37.741Z,73.94
2016-10-21T23:13:37.760Z,74.04
2016-10-21T23:14:52.659Z,74.32
2016-10-21T23:15:37.675Z,74.38
2016-10-21T23:16:37.611Z,74.48
2016-10-21T23:17:37.589Z,74.51
2016-10-21T23:18:37.556Z,74.32
2016-10-21T23:19:37.533Z,74.41
2016-10-21T23:20:37.497Z,74.22
2016-10-21T23:21:37.824Z,74.22
2016-10-21T23:22:37.417Z,74.51
2016-10-21T23:23:37.404Z,74.51
2016-10-21T23:24:37.375Z,74.32
2016-10-21T23:25:37.340Z,74.51
2016-10-21T23:26:37.305Z,74.48
2016-10-21T23:27:37.420Z,73.75
2016-10-21T23:28:37.248Z,74.13
2016-10-21T23:29:37.209Z,74.04
2016-10-21T23:30:37.367Z,74.13
2016-10-21T23:31:37.513Z,74.13
2016-10-21T23:32:37.138Z,74.13
2016-10-21T23:33:37.107Z,74.51
2016-10-21T23:34:37.065Z,74.13
2016-10-21T23:35:37.048Z,73.94
2016-10-21T23:37:36.990Z,74.7
2016-10-21T23:39:36.946Z,74.04
2016-10-21T23:40:36.904Z,74.22
2016-10-21T23:41:36.895Z,74.41
2016-10-21T23:42:37.270Z,74.61
2016-10-21T23:43:37.201Z,74.32
2016-10-21T23:44:36.767Z,74.8
2016-10-21T23:45:36.757Z,74.04
2016-10-21T23:46:37.209Z,74.13
2016-10-21T23:47:36.685Z,73.94
2016-10-21T23:48:36.670Z,74.04
2016-10-21T23:49:36.653Z,74.51
2016-10-21T23:50:36.618Z,74.32
2016-10-21T23:51:36.583Z,74.51
2016-10-21T23:52:36.554Z,74.51
2016-10-21T23:53:36.869Z,74.51
2016-10-21T23:54:36.506Z,74.51
2016-10-21T23:55:36.817Z,74.41
2016-10-21T23:56:36.438Z,74.28
2016-10-21T23:57:36.417Z,74.61
2016-10-21T23:58:36.384Z,74.41
2016-10-21T23:59:36.368Z,74.41
